Time;durP1;ratioP1;P1;durP2;ratioP2;P2;SDS_P1;SDS_P2;PMS_P1;PMS_P2;Temp;Humidity;BMP_temperature;BMP_pressure;BME280_temperature;BME280_humidity;BME280_pressure;Samples;Min_cycle;Max_cycle;Signal;HPM_P1;HPM_P2
2022/04/16 00:02:42;;;;;;;5.18;4.03;;;18.50;47.60;17.70;102691.00;;;;6209302;23;20020;-65
2022/04/16 00:05:28;;;;;;;5.60;4.05;;;18.50;47.60;17.70;102683.00;;;;6208911;23;20044;-66
2022/04/16 00:08:14;;;;;;;5.25;4.47;;;18.60;47.60;17.70;102685.00;;;;6211320;23;20024;-66
2022/04/16 00:11:00;;;;;;;5.03;4.25;;;18.60;47.60;17.70;102685.00;;;;6209012;23;20016;-65
2022/04/16 00:13:50;;;;;;;5.43;4.38;;;18.60;47.60;17.70;102685.00;;;;6208224;23;20024;-65
2022/04/16 00:16:36;;;;;;;4.88;4.30;;;18.50;47.60;17.70;102685.00;;;;6211204;23;20024;-65
2022/04/16 00:19:23;;;;;;;6.63;4.43;;;18.60;47.70;17.70;102688.00;;;;6210392;23;20395;-66
2022/04/16 00:22:12;;;;;;;5.40;4.65;;;18.60;47.60;17.70;102691.00;;;;6210070;23;20099;-65
2022/04/16 00:24:58;;;;;;;5.13;4.22;;;18.60;47.70;17.70;102683.00;;;;6210064;23;20114;-65
2022/04/16 00:27:44;;;;;;;6.22;4.80;;;18.60;47.60;17.70;102687.00;;;;6210772;23;20012;-66
2022/04/16 00:30:37;;;;;;;4.60;3.92;;;18.60;47.60;17.70;102679.00;;;;6211211;23;20062;-66
2022/04/16 00:33:25;;;;;;;6.40;4.38;;;18.50;47.60;17.70;102686.00;;;;6211477;23;20023;-65
2022/04/16 00:36:11;;;;;;;6.78;4.53;;;18.60;47.70;17.60;102687.00;;;;6210342;23;20095;-65
2022/04/16 00:38:57;;;;;;;5.15;4.40;;;18.50;47.60;17.70;102686.00;;;;6208403;23;20031;-66
2022/04/16 00:41:43;;;;;;;5.97;4.60;;;18.50;47.60;17.60;102685.00;;;;6210578;23;20076;-66
2022/04/16 00:44:29;;;;;;;6.15;4.85;;;18.50;47.60;17.60;102685.00;;;;6207794;23;20042;-66
2022/04/16 00:47:15;;;;;;;6.10;4.22;;;18.50;47.60;17.60;102689.00;;;;6211043;23;20043;-66
2022/04/16 00:50:03;;;;;;;5.57;4.45;;;18.60;47.60;17.60;102686.00;;;;6209746;23;20024;-66
2022/04/16 00:52:50;;;;;;;6.10;4.85;;;18.50;47.60;17.60;102688.00;;;;6208065;23;20062;-66
2022/04/16 00:55:36;;;;;;;6.85;4.72;;;18.50;47.60;17.60;102691.00;;;;6210647;23;20059;-66
2022/04/16 00:58:22;;;;;;;5.25;4.45;;;18.50;47.60;17.60;102687.00;;;;6208058;23;20095;-65
2022/04/16 01:01:09;;;;;;;6.10;4.63;;;18.50;47.60;17.60;102686.00;;;;6209133;23;20044;-66
2022/04/16 01:03:55;;;;;;;5.57;4.53;;;18.50;47.60;17.60;102689.00;;;;6210625;23;20016;-66
2022/04/16 01:06:48;;;;;;;5.32;4.63;;;18.50;47.60;17.60;102684.00;;;;6210867;23;20377;-66
2022/04/16 01:09:34;;;;;;;10.18;4.70;;;18.50;47.60;17.60;102683.00;;;;6210623;23;20418;-65
2022/04/16 01:12:20;;;;;;;5.43;4.68;;;18.50;47.60;17.60;102686.00;;;;6210333;23;20043;-65
2022/04/16 01:15:06;;;;;;;4.78;4.25;;;18.50;47.60;17.60;102686.00;;;;6209828;23;20086;-66
2022/04/16 01:17:53;;;;;;;5.07;4.47;;;18.50;47.60;17.60;102685.00;;;;6211910;23;20094;-66
2022/04/16 01:20:41;;;;;;;6.47;4.70;;;18.60;47.70;17.60;102689.00;;;;6208156;23;20016;-65
2022/04/16 01:23:27;;;;;;;6.65;5.07;;;18.50;47.70;17.60;102691.00;;;;6209718;23;20016;-66
2022/04/16 01:26:14;;;;;;;6.05;4.82;;;18.50;47.70;17.60;102700.00;;;;6211410;23;20021;-66
2022/04/16 01:29:01;;;;;;;5.45;4.78;;;18.50;47.70;17.60;102693.00;;;;6209603;23;20016;-65
2022/04/16 01:31:47;;;;;;;5.82;4.82;;;18.50;47.70;17.60;102687.00;;;;6210582;23;20023;-66
2022/04/16 01:34:33;;;;;;;6.28;4.90;;;18.50;47.70;17.60;102691.00;;;;6210542;23;20051;-66
2022/04/16 01:37:19;;;;;;;6.18;4.43;;;18.50;47.70;17.60;102698.00;;;;6210917;23;20023;-66
2022/04/16 01:40:08;;;;;;;5.70;4.65;;;18.50;47.70;17.60;102708.00;;;;6209696;23;20430;-66
2022/04/16 01:42:57;;;;;;;7.25;5.00;;;18.50;47.70;17.60;102712.00;;;;6208549;23;20035;-65
2022/04/16 01:45:43;;;;;;;6.50;4.55;;;18.60;47.80;17.60;102710.00;;;;6211585;23;20259;-65
2022/04/16 01:48:29;;;;;;;8.02;5.63;;;18.50;47.70;17.60;102714.00;;;;6209825;23;20023;-65
2022/04/16 01:51:19;;;;;;;6.43;4.88;;;18.50;47.70;17.60;102717.00;;;;6210481;23;20012;-65
2022/04/16 01:54:05;;;;;;;7.43;4.65;;;18.50;47.70;17.60;102719.00;;;;6209999;23;20394;-65
2022/04/16 01:56:51;;;;;;;6.10;4.72;;;18.50;47.70;17.60;102714.00;;;;6209389;23;20079;-66
2022/04/16 01:59:37;;;;;;;7.22;5.03;;;18.50;47.70;17.60;102718.00;;;;6210385;23;20051;-65
2022/04/16 02:02:23;;;;;;;7.72;4.82;;;18.60;47.80;17.60;102715.00;;;;6211311;23;20328;-66
2022/04/16 02:05:09;;;;;;;6.70;5.38;;;18.60;47.70;17.60;102714.00;;;;6210097;23;20024;-66
2022/04/16 02:07:56;;;;;;;7.13;4.57;;;18.50;48.40;17.60;102716.00;;;;6209223;23;20052;-66
2022/04/16 02:10:42;;;;;;;6.72;5.32;;;18.50;47.70;17.60;102717.00;;;;6212086;23;20017;-66
2022/04/16 02:13:28;;;;;;;6.50;4.93;;;18.60;47.80;17.60;102716.00;;;;6209360;23;20446;-66
2022/04/16 02:16:14;;;;;;;6.40;5.13;;;18.50;47.70;17.60;102717.00;;;;6212229;23;20024;-66
2022/04/16 02:19:00;;;;;;;7.22;5.43;;;18.50;47.70;17.60;102723.00;;;;6211374;23;20017;-66
2022/04/16 02:21:47;;;;;;;7.85;5.30;;;18.50;47.70;17.60;102729.00;;;;6211909;23;20021;-66
2022/04/16 02:24:33;;;;;;;6.50;5.37;;;18.50;47.70;17.60;102726.00;;;;6212311;23;20055;-66
2022/04/16 02:27:20;;;;;;;8.90;5.22;;;18.50;47.70;17.60;102728.00;;;;6212166;23;20021;-65
2022/04/16 02:30:09;;;;;;;8.05;5.57;;;18.50;47.70;17.60;102722.00;;;;6211025;23;20378;-66
2022/04/16 02:32:55;;;;;;;8.00;5.80;;;18.50;47.70;17.60;102724.00;;;;6189523;23;20016;-65
2022/04/16 02:35:41;;;;;;;7.35;5.90;;;18.50;47.70;17.60;102731.00;;;;6212142;23;20023;-66
2022/04/16 02:38:27;;;;;;;8.50;5.95;;;18.50;47.70;17.60;102731.00;;;;6170261;23;20394;-65
2022/04/16 02:41:13;;;;;;;7.55;5.50;;;18.50;47.70;17.60;102734.00;;;;6211734;23;20012;-66
2022/04/16 02:43:59;;;;;;;7.43;5.53;;;18.50;47.70;17.60;102738.00;;;;6209101;23;20354;-65
2022/04/16 02:49:50;;;;;;;7.70;5.60;;;18.50;47.70;17.60;102736.00;;;;6210848;23;20338;-65
2022/04/16 02:52:37;;;;;;;7.18;5.93;;;18.50;47.70;17.60;102735.00;;;;6211813;23;20013;-65
2022/04/16 02:55:23;;;;;;;6.72;5.38;;;18.50;47.70;17.60;102737.00;;;;6208822;23;20408;-66
2022/04/16 02:58:11;;;;;;;6.80;5.38;;;18.50;47.70;17.60;102743.00;;;;6189446;23;20023;-66
2022/04/16 03:00:57;;;;;;;7.43;5.20;;;18.50;47.60;17.60;102746.00;;;;6210225;23;20103;-65
2022/04/16 03:03:43;;;;;;;7.38;5.53;;;18.50;47.70;17.60;102741.00;;;;6210887;23;20048;-65
2022/04/16 03:06:29;;;;;;;6.70;5.43;;;18.50;47.70;17.60;102747.00;;;;6211711;23;20342;-65
2022/04/16 03:09:15;;;;;;;8.10;5.68;;;18.50;47.70;17.60;102746.00;;;;6210925;23;20013;-65
2022/04/16 03:12:01;;;;;;;6.60;5.10;;;18.50;47.70;17.50;102750.00;;;;6211372;23;20445;-66
2022/04/16 03:17:52;;;;;;;7.63;4.60;;;18.50;47.80;17.50;102751.00;;;;6211636;23;20021;-66
2022/04/16 03:20:39;;;;;;;7.72;4.95;;;18.50;47.80;17.50;102760.00;;;;6210665;23;20468;-66
2022/04/16 03:23:25;;;;;;;7.45;5.00;;;18.40;47.80;17.50;102756.00;;;;6211092;23;20019;-66
2022/04/16 03:26:11;;;;;;;7.40;5.35;;;18.50;47.80;17.50;102757.00;;;;6209225;23;20035;-66
2022/04/16 03:28:58;;;;;;;7.90;5.03;;;18.40;47.80;17.50;102768.00;;;;6210665;23;20017;-65
2022/04/16 03:31:44;;;;;;;7.45;5.35;;;18.40;47.90;17.50;102772.00;;;;6211317;23;20051;-66
2022/04/16 03:34:31;;;;;;;8.45;5.03;;;18.40;47.80;17.50;102770.00;;;;6210625;23;20012;-66
2022/04/16 03:37:17;;;;;;;6.78;4.80;;;18.40;47.80;17.50;102767.00;;;;6189716;23;20316;-66
2022/04/16 03:40:04;;;;;;;6.18;4.80;;;18.50;47.80;17.50;102766.00;;;;6211193;23;20017;-66
2022/04/16 03:43:01;;;;;;;6.33;4.33;;;18.40;47.80;17.50;102772.00;;;;6210047;23;20016;-66
2022/04/16 03:45:47;;;;;;;5.38;4.50;;;18.40;47.80;17.50;102780.00;;;;6210659;23;20063;-66
2022/04/16 03:48:33;;;;;;;5.25;4.45;;;18.40;47.80;17.50;102781.00;;;;6210618;23;20035;-66
2022/04/16 03:51:20;;;;;;;5.15;4.18;;;18.40;47.80;17.50;102781.00;;;;6209969;23;20447;-66
2022/04/16 04:00:17;;;;;;;7.18;4.30;;;18.40;47.80;17.50;102790.00;;;;6210010;23;20347;-65
2022/04/16 04:03:03;;;;;;;5.68;4.60;;;18.40;47.80;17.50;102791.00;;;;6209105;23;20466;-66
2022/04/16 04:05:49;;;;;;;5.13;4.18;;;18.40;47.80;17.50;102797.00;;;;6211315;23;20021;-66
2022/04/16 04:08:35;;;;;;;6.45;4.72;;;18.40;47.80;17.50;102791.00;;;;6210253;23;20013;-66
2022/04/16 04:11:21;;;;;;;6.30;4.80;;;18.40;47.80;17.50;102798.00;;;;6209226;23;20159;-65
2022/04/16 04:14:07;;;;;;;7.25;4.85;;;18.50;47.80;17.50;102798.00;;;;6210120;23;20167;-65
2022/04/16 04:16:53;;;;;;;6.32;4.72;;;18.40;47.70;17.50;102804.00;;;;6211203;23;20028;-66
2022/04/16 04:19:41;;;;;;;6.35;4.70;;;18.40;47.80;17.50;102805.00;;;;6210520;23;20442;-66
2022/04/16 04:22:28;;;;;;;6.57;5.10;;;18.40;47.70;17.50;102809.00;;;;6170341;23;20027;-65
2022/04/16 04:25:14;;;;;;;6.82;4.93;;;18.50;47.70;17.50;102812.00;;;;6210757;23;20020;-65
2022/04/16 04:28:00;;;;;;;6.35;4.72;;;18.50;47.70;17.50;102809.00;;;;6209083;23;20338;-66
2022/04/16 04:30:46;;;;;;;6.25;4.55;;;18.50;47.70;17.50;102813.00;;;;6210577;23;20458;-66
2022/04/16 04:33:33;;;;;;;7.80;5.30;;;18.50;47.70;17.50;102815.00;;;;6210691;23;20013;-65
2022/04/16 04:36:19;;;;;;;6.38;4.80;;;18.50;47.70;17.50;102814.00;;;;6210783;23;20079;-66
2022/04/16 04:39:05;;;;;;;6.70;4.93;;;18.50;47.70;17.50;102825.00;;;;6210242;23;20016;-66
2022/04/16 04:41:51;;;;;;;7.63;5.30;;;18.50;47.70;17.50;102826.00;;;;6210922;23;20418;-66
2022/04/16 04:44:37;;;;;;;8.02;5.22;;;18.50;47.70;17.50;102833.00;;;;6210722;23;20021;-65
2022/04/16 04:47:23;;;;;;;9.43;6.38;;;18.50;47.70;17.50;102837.00;;;;6189473;23;20091;-66
2022/04/16 04:50:10;;;;;;;8.20;6.05;;;18.50;47.70;17.50;102836.00;;;;6188849;23;20012;-66
2022/04/16 04:52:56;;;;;;;9.65;6.22;;;18.50;47.70;17.50;102835.00;;;;6208531;23;20508;-65
2022/04/16 04:55:42;;;;;;;8.18;6.22;;;18.50;47.60;17.50;102843.00;;;;6211121;23;20020;-65
2022/04/16 04:58:28;;;;;;;8.60;6.07;;;18.50;47.60;17.50;102848.00;;;;6211568;23;20016;-66
2022/04/16 05:01:14;;;;;;;7.72;5.85;;;18.60;47.70;17.50;102854.00;;;;6210125;23;20321;-65
2022/04/16 05:04:00;;;;;;;9.95;6.80;;;18.50;47.60;17.60;102852.00;;;;6209655;23;20017;-65
2022/04/16 05:06:46;;;;;;;8.60;5.80;;;18.50;47.60;17.60;102858.00;;;;6210560;23;20021;-65
2022/04/16 05:09:33;;;;;;;8.27;5.80;;;18.50;47.60;17.60;102855.00;;;;6210320;23;20020;-66
2022/04/16 05:12:19;;;;;;;8.95;6.05;;;18.50;47.50;17.60;102867.00;;;;6204461;23;20042;-66
2022/04/16 05:15:06;;;;;;;10.35;6.68;;;18.50;47.50;17.60;102867.00;;;;6203444;23;20069;-66
2022/04/16 05:17:52;;;;;;;9.15;6.00;;;18.50;47.50;17.60;102878.00;;;;6204764;23;20201;-65
2022/04/16 05:20:38;;;;;;;7.38;5.38;;;18.50;47.50;17.60;102876.00;;;;6207638;23;20025;-65
2022/04/16 05:23:24;;;;;;;8.30;5.93;;;18.50;47.40;17.60;102881.00;;;;6206420;23;20039;-66
2022/04/16 05:26:11;;;;;;;10.73;6.03;;;18.50;47.40;17.60;102873.00;;;;6207824;23;20075;-65
2022/04/16 05:28:57;;;;;;;10.18;5.72;;;18.50;47.30;17.60;102881.00;;;;6204733;23;20315;-65
2022/04/16 05:31:43;;;;;;;6.70;4.55;;;18.50;47.20;17.60;102885.00;;;;6206603;23;20019;-66
2022/04/16 05:34:29;;;;;;;6.75;4.75;;;18.50;47.20;17.60;102900.00;;;;6208100;23;20052;-65
2022/04/16 05:37:15;;;;;;;8.25;5.00;;;18.50;47.00;17.60;102885.00;;;;6208211;23;20043;-65
2022/04/16 05:40:03;;;;;;;6.90;4.72;;;18.50;47.00;17.60;102889.00;;;;6208856;23;20051;-65
2022/04/16 05:42:49;;;;;;;6.90;4.85;;;18.50;46.90;17.60;102889.00;;;;6209936;23;20024;-65
2022/04/16 05:45:35;;;;;;;6.35;4.15;;;18.60;47.00;17.60;102896.00;;;;6209950;23;20350;-65
2022/04/16 05:48:21;;;;;;;6.68;4.32;;;18.50;46.80;17.60;102900.00;;;;6209321;23;20078;-65
2022/04/16 05:51:07;;;;;;;7.90;4.70;;;18.50;46.80;17.60;102917.00;;;;6208529;23;20023;-66
2022/04/16 05:53:53;;;;;;;6.53;4.30;;;18.60;46.80;17.60;102912.00;;;;6205316;23;20031;-65
2022/04/16 05:56:39;;;;;;;6.32;4.28;;;18.40;46.60;17.60;102922.00;;;;6209096;23;20026;-65
2022/04/16 05:59:25;;;;;;;6.88;4.75;;;18.50;46.60;17.60;102928.00;;;;6208083;23;20020;-65
2022/04/16 06:02:12;;;;;;;6.60;4.30;;;18.50;46.60;17.60;102927.00;;;;6208661;23;20020;-66
2022/04/16 06:04:58;;;;;;;5.55;4.15;;;18.50;46.60;17.60;102927.00;;;;6207801;23;20023;-66
2022/04/16 06:07:44;;;;;;;5.10;3.63;;;18.50;46.50;17.60;102925.00;;;;6208270;23;20016;-66
2022/04/16 06:10:30;;;;;;;6.07;4.47;;;18.50;46.50;17.60;102922.00;;;;6209404;23;20368;-65
2022/04/16 06:13:16;;;;;;;5.53;3.67;;;18.50;46.40;17.50;102927.00;;;;6208208;23;20076;-65
2022/04/16 06:16:02;;;;;;;6.07;3.78;;;18.50;46.40;17.60;102939.00;;;;6208551;23;20163;-65
2022/04/16 06:18:48;;;;;;;7.35;3.58;;;18.50;46.40;17.50;102939.00;;;;6208785;23;20025;-65
2022/04/16 06:21:34;;;;;;;5.82;3.42;;;18.50;46.40;17.50;102932.00;;;;6207332;23;20027;-65
2022/04/16 06:24:20;;;;;;;4.95;3.70;;;18.50;46.30;17.50;102934.00;;;;6208600;23;20028;-66
2022/04/16 06:27:06;;;;;;;5.78;3.97;;;18.50;46.40;17.50;102943.00;;;;6205775;23;20063;-65
2022/04/16 06:29:52;;;;;;;5.90;3.70;;;18.50;47.00;17.50;102940.00;;;;6203813;23;20040;-65
2022/04/16 06:32:38;;;;;;;6.00;3.55;;;18.50;46.30;17.50;102944.00;;;;6206081;23;20024;-66
2022/04/16 06:35:24;;;;;;;4.45;3.40;;;18.50;46.30;17.50;102946.00;;;;6205931;23;20416;-65
2022/04/16 06:38:10;;;;;;;6.28;3.35;;;18.50;46.30;17.50;102951.00;;;;6201903;23;20020;-65
2022/04/16 06:40:57;;;;;;;5.45;3.72;;;18.60;46.40;17.50;102947.00;;;;6206702;23;20024;-66
2022/04/16 06:43:43;;;;;;;4.47;3.20;;;18.50;46.30;17.50;102946.00;;;;6204952;23;20016;-66
2022/04/16 06:46:29;;;;;;;6.75;3.55;;;18.50;46.30;17.50;102945.00;;;;6202721;23;20016;-66
2022/04/16 06:49:15;;;;;;;4.75;3.20;;;18.50;46.30;17.50;102957.00;;;;6204172;23;20048;-66
2022/04/16 06:52:01;;;;;;;4.07;2.92;;;18.50;46.30;17.50;102960.00;;;;6204770;23;20021;-65
2022/04/16 06:54:47;;;;;;;5.60;3.10;;;18.50;46.20;17.50;102962.00;;;;6205853;23;20016;-65
2022/04/16 06:57:33;;;;;;;4.53;3.13;;;18.50;46.20;17.50;102962.00;;;;6205705;23;20012;-65
2022/04/16 07:00:19;;;;;;;5.93;3.20;;;18.50;46.20;17.50;102958.00;;;;6208715;23;20528;-65
2022/04/16 07:03:07;;;;;;;4.28;2.53;;;18.50;46.20;17.50;102964.00;;;;6207818;23;20009;-66
2022/04/16 07:05:53;;;;;;;6.10;2.92;;;18.50;46.10;17.50;102961.00;;;;6187784;23;20020;-65
2022/04/16 07:08:39;;;;;;;5.13;2.92;;;18.50;46.10;17.50;102965.00;;;;6208421;23;20016;-66
2022/04/16 07:11:25;;;;;;;4.68;2.92;;;18.50;46.10;17.50;102967.00;;;;6209035;23;20043;-65
2022/04/16 07:14:11;;;;;;;4.68;2.92;;;18.50;46.10;17.50;102975.00;;;;6208075;23;20016;-66
2022/04/16 07:16:57;;;;;;;3.75;2.53;;;18.50;46.10;17.50;102982.00;;;;6209762;23;20016;-65
2022/04/16 07:19:43;;;;;;;6.22;2.95;;;18.50;46.10;17.50;102978.00;;;;6208504;23;20072;-66
2022/04/16 07:22:29;;;;;;;4.22;2.65;;;18.50;46.00;17.50;102978.00;;;;6207718;23;20414;-66
2022/04/16 07:25:15;;;;;;;3.60;2.45;;;18.50;45.90;17.50;102985.00;;;;6209119;23;20020;-65
2022/04/16 07:28:01;;;;;;;3.33;2.45;;;18.50;46.00;17.50;102979.00;;;;6209291;23;20342;-65
2022/04/16 07:30:49;;;;;;;4.10;2.42;;;18.50;45.90;17.50;102980.00;;;;6206377;23;20020;-65
2022/04/16 07:33:35;;;;;;;2.90;2.23;;;18.50;45.90;17.50;102981.00;;;;6207989;23;20454;-66
2022/04/16 07:36:21;;;;;;;4.28;2.17;;;18.50;45.90;17.50;102982.00;;;;6209012;23;20016;-66
2022/04/16 07:39:07;;;;;;;3.63;1.92;;;18.50;45.90;17.50;102979.00;;;;6205881;23;20024;-66
2022/04/16 07:41:53;;;;;;;3.53;2.30;;;18.50;45.90;17.50;102977.00;;;;6208824;23;20079;-66
2022/04/16 07:44:39;;;;;;;3.25;2.00;;;18.50;45.90;17.50;102974.00;;;;6207862;23;20024;-65
2022/04/16 07:47:25;;;;;;;5.60;2.20;;;18.50;45.90;17.50;102989.00;;;;6206083;23;20031;-66
2022/04/16 07:50:11;;;;;;;4.00;2.20;;;18.50;45.90;17.50;102985.00;;;;6206186;23;20027;-66
2022/04/16 07:52:57;;;;;;;3.75;1.92;;;18.50;45.80;17.50;102995.00;;;;6207785;23;20012;-66
2022/04/16 07:55:43;;;;;;;2.50;1.60;;;18.50;45.80;17.50;102995.00;;;;6208230;23;20345;-66
2022/04/16 07:58:29;;;;;;;3.53;2.20;;;18.50;45.90;17.50;102997.00;;;;6207697;23;20511;-66
2022/04/16 08:01:15;;;;;;;2.85;1.80;;;18.50;45.90;17.50;102996.00;;;;6205279;23;20020;-66
2022/04/16 08:04:01;;;;;;;4.57;2.03;;;18.50;45.80;17.50;103007.00;;;;6204562;23;20025;-65
2022/04/16 08:06:47;;;;;;;2.45;1.92;;;18.50;45.70;17.50;103009.00;;;;6207541;23;20021;-65
2022/04/16 08:09:33;;;;;;;2.78;1.67;;;18.50;45.80;17.50;103018.00;;;;6207390;23;20016;-66
2022/04/16 08:12:20;;;;;;;2.40;1.88;;;18.50;45.60;17.50;103013.00;;;;6207153;23;20338;-66
2022/04/16 08:15:06;;;;;;;2.83;1.83;;;18.50;45.60;17.50;103017.00;;;;6203599;23;20024;-66
2022/04/16 08:17:52;;;;;;;4.07;1.95;;;18.50;45.60;17.50;103016.00;;;;6207105;23;20434;-66
2022/04/16 08:20:38;;;;;;;3.90;1.98;;;18.50;45.90;17.50;103024.00;;;;6204674;23;20016;-66
2022/04/16 08:23:24;;;;;;;2.55;1.77;;;18.40;45.70;17.50;103030.00;;;;6202966;23;20023;-66
2022/04/16 08:26:11;;;;;;;5.15;2.30;;;18.50;45.70;17.50;103024.00;;;;6203497;23;20083;-66
2022/04/16 08:28:57;;;;;;;4.20;1.88;;;18.50;45.50;17.50;103029.00;;;;6202793;23;20095;-64
2022/04/16 08:31:43;;;;;;;6.22;2.22;;;18.40;45.50;17.50;103032.00;;;;6206218;23;20442;-64
2022/04/16 08:34:29;;;;;;;3.10;2.05;;;18.50;45.10;17.50;103039.00;;;;6207157;23;20338;-64
2022/04/16 08:37:15;;;;;;;2.70;1.85;;;18.50;45.20;17.40;103029.00;;;;6209423;23;20021;-64
2022/04/16 08:40:03;;;;;;;1.83;1.67;;;18.40;45.10;17.40;103031.00;;;;6207816;23;20020;-64
2022/04/16 08:42:49;;;;;;;4.78;2.17;;;18.40;45.00;17.40;103031.00;;;;6208245;23;20139;-64
2022/04/16 08:45:36;;;;;;;2.95;2.00;;;18.40;45.00;17.40;103032.00;;;;6208872;23;20506;-64
2022/04/16 08:48:22;;;;;;;3.03;1.80;;;18.40;44.80;17.40;103029.00;;;;6186790;23;20289;-64
2022/04/16 08:51:09;;;;;;;2.60;1.58;;;18.40;44.70;17.30;103019.00;;;;6188041;23;20501;-64
2022/04/16 08:53:55;;;;;;;3.65;1.92;;;18.40;44.60;17.30;103021.00;;;;6210116;23;20308;-64
2022/04/16 08:56:41;;;;;;;2.20;1.60;;;18.40;44.60;17.30;103012.00;;;;6188628;23;20309;-64
2022/04/16 08:59:27;;;;;;;4.28;1.70;;;18.30;44.50;17.30;103020.00;;;;6210707;23;20023;-64
2022/04/16 09:02:13;;;;;;;4.10;1.63;;;18.30;44.30;17.30;103018.00;;;;6209982;23;20051;-63
2022/04/16 09:05:07;;;;;;;3.50;1.42;;;18.30;44.40;17.30;103019.00;;;;6184034;23;20020;-63
2022/04/16 09:07:57;;;;;;;2.15;1.30;;;18.30;44.00;17.30;103018.00;;;;6207598;23;20609;-62
2022/04/16 09:10:44;;;;;;;3.22;1.60;;;18.30;44.20;17.30;103008.00;;;;6206204;23;20021;-63
2022/04/16 09:13:30;;;;;;;1.80;1.30;;;18.30;44.10;17.30;103009.00;;;;6189543;23;20027;-63
2022/04/16 09:16:17;;;;;;;4.18;1.58;;;18.30;44.30;17.30;103011.00;;;;6206635;23;20024;-62
2022/04/16 09:19:03;;;;;;;1.85;1.10;;;18.30;44.10;17.30;103025.00;;;;6210060;23;20427;-63
2022/04/16 09:21:49;;;;;;;1.25;0.95;;;18.20;44.00;17.30;103022.00;;;;6212038;23;20021;-75
2022/04/16 09:24:47;;;;;;;1.25;0.95;;;18.30;44.00;17.30;103034.00;;;;6189305;23;20027;-63
2022/04/16 09:27:41;;;;;;;1.33;1.00;;;18.30;43.70;17.30;103023.00;;;;6207723;23;20016;-63
2022/04/16 09:30:29;;;;;;;1.77;0.90;;;18.30;43.60;17.30;103013.00;;;;6186727;23;20485;-63
2022/04/16 09:33:15;;;;;;;2.28;1.10;;;18.30;43.70;17.30;103018.00;;;;6207816;23;20128;-63
2022/04/16 09:36:01;;;;;;;1.48;0.70;;;18.30;43.50;17.30;103021.00;;;;6206816;23;20083;-63
2022/04/16 09:38:48;;;;;;;1.33;0.68;;;18.30;43.40;17.30;103024.00;;;;6210799;23;20044;-62
2022/04/16 09:41:36;;;;;;;1.52;0.73;;;18.30;43.20;17.30;103021.00;;;;6209442;23;20543;-63
2022/04/16 09:44:25;;;;;;;11.23;0.90;;;18.30;43.10;17.30;103025.00;;;;6189346;23;20096;-63
2022/04/16 09:47:11;;;;;;;2.10;0.77;;;18.40;43.00;17.30;103021.00;;;;6168743;23;20104;-63
2022/04/16 09:49:57;;;;;;;1.35;0.80;;;18.40;42.90;17.40;103022.00;;;;6210235;23;20012;-63
2022/04/16 09:52:43;;;;;;;2.08;0.73;;;18.30;42.80;17.40;103022.00;;;;6169215;23;20013;-62
2022/04/16 09:55:29;;;;;;;1.30;0.93;;;18.40;42.80;17.40;103021.00;;;;6206752;23;20043;-63
2022/04/16 09:58:15;;;;;;;2.42;0.70;;;18.30;42.70;17.40;103023.00;;;;6210071;23;20027;-63
2022/04/16 10:01:01;;;;;;;1.85;0.60;;;18.40;42.70;17.40;103020.00;;;;6188362;23;20039;-63
2022/04/16 10:03:48;;;;;;;0.90;0.45;;;18.40;42.70;17.40;103026.00;;;;6211436;23;20021;-63
2022/04/16 10:06:34;;;;;;;1.33;0.52;;;18.40;42.60;17.50;103026.00;;;;6170321;23;20044;-63
2022/04/16 10:09:22;;;;;;;1.90;0.50;;;18.50;42.60;17.50;103022.00;;;;6210933;23;20024;-63
2022/04/16 10:15:18;;;;;;;1.88;0.50;;;18.50;42.40;17.50;103030.00;;;;6209689;23;20013;-63
2022/04/16 10:18:04;;;;;;;0.45;0.40;;;18.50;42.20;17.50;103023.00;;;;6210591;23;20035;-64
2022/04/16 10:20:58;;;;;;;1.60;0.70;;;18.50;42.40;17.50;103024.00;;;;6207284;23;20013;-63
2022/04/16 10:23:46;;;;;;;1.08;0.50;;;18.50;42.10;17.50;103021.00;;;;6187332;23;20012;-65
2022/04/16 10:26:40;;;;;;;0.65;0.47;;;18.50;42.20;17.60;103031.00;;;;6168328;23;20051;-63
2022/04/16 10:29:26;;;;;;;0.40;0.30;;;18.50;42.00;17.60;103024.00;;;;6144786;23;20020;-71
2022/04/16 10:32:16;;;;;;;0.77;0.28;;;18.60;42.10;17.60;103028.00;;;;6187754;23;20017;-64
2022/04/16 10:35:04;;;;;;;0.90;0.47;;;18.60;41.90;17.60;103029.00;;;;6207156;23;20470;-64
2022/04/16 10:37:54;;;;;;;0.73;0.40;;;18.60;42.10;17.60;103025.00;;;;6211823;23;20043;-64
2022/04/16 10:40:41;;;;;;;0.52;0.30;;;18.60;42.00;17.60;103017.00;;;;6207030;23;20044;-64
2022/04/16 10:43:32;;;;;;;0.93;0.50;;;18.60;42.00;17.60;103023.00;;;;6185023;23;20013;-64
2022/04/16 10:46:18;;;;;;;0.68;0.30;;;18.70;41.90;17.60;103011.00;;;;6205084;23;20087;-64
2022/04/16 10:49:08;;;;;;;1.63;0.38;;;18.70;41.80;17.60;103018.00;;;;6204965;23;20039;-64
2022/04/16 10:51:58;;;;;;;0.90;0.40;;;18.70;41.50;17.60;103015.00;;;;6206344;23;20020;-66
2022/04/16 10:54:47;;;;;;;0.60;0.50;;;18.70;41.50;17.70;103018.00;;;;6188664;23;20091;-64
2022/04/16 10:57:33;;;;;;;0.45;0.35;;;18.70;41.50;17.70;103011.00;;;;6169037;23;20070;-65
2022/04/16 11:00:19;;;;;;;0.65;0.30;;;18.70;41.40;17.70;103018.00;;;;6207238;23;20021;-64
2022/04/16 11:03:25;;;;;;;0.82;0.50;;;18.70;41.40;17.70;103006.00;;;;6211518;23;20091;-64
2022/04/16 11:06:12;;;;;;;0.45;0.40;;;18.70;41.20;17.70;103011.00;;;;6189582;23;20028;-64
2022/04/16 11:08:58;;;;;;;0.40;0.40;;;18.70;41.30;17.70;103001.00;;;;6210829;23;20021;-64
2022/04/16 11:11:52;;;;;;;0.80;0.40;;;18.80;41.30;17.70;103010.00;;;;6207339;23;20019;-64
2022/04/16 11:14:38;;;;;;;2.38;0.30;;;18.70;41.10;17.70;103000.00;;;;6208335;23;20188;-64
2022/04/16 11:17:24;;;;;;;1.10;0.20;;;18.80;41.20;17.70;102994.00;;;;6169643;23;20283;-72
2022/04/16 11:20:10;;;;;;;0.45;0.30;;;18.80;41.10;17.70;103004.00;;;;6186849;23;20024;-65
2022/04/16 11:22:57;;;;;;;0.35;0.35;;;18.80;41.10;17.70;102993.00;;;;6208546;23;20047;-64
2022/04/16 11:34:57;;;;;;;0.70;0.30;;;18.80;40.70;17.70;102978.00;;;;6209606;23;20617;-64
2022/04/16 11:37:43;;;;;;;0.55;0.38;;;18.90;40.70;17.80;102989.00;;;;6207090;23;20024;-64
2022/04/16 11:40:32;;;;;;;1.83;0.20;;;18.90;40.70;17.80;102981.00;;;;6208524;23;20021;-64
2022/04/16 11:43:20;;;;;;;3.55;0.43;;;18.90;40.60;17.80;102986.00;;;;6207147;23;20016;-64
2022/04/16 11:46:13;;;;;;;6.72;0.95;;;18.90;41.10;17.80;102991.00;;;;6207221;23;20024;-64
2022/04/16 11:49:00;;;;;;;4.40;0.60;;;18.90;40.60;17.80;102982.00;;;;6207167;23;20108;-64
2022/04/16 11:51:46;;;;;;;4.10;1.10;;;18.90;40.80;17.80;102976.00;;;;6207755;23;20020;-64
2022/04/16 11:54:33;;;;;;;2.65;0.43;;;18.90;40.90;17.70;102986.00;;;;6185751;23;20013;-65
2022/04/16 11:57:21;;;;;;;3.30;0.50;;;18.90;40.80;17.70;102984.00;;;;6211195;23;20095;-64
2022/04/16 12:00:10;;;;;;;1.42;0.70;;;18.90;40.70;17.70;102987.00;;;;6209102;23;20095;-65
2022/04/16 12:02:56;;;;;;;1.67;0.40;;;18.90;40.60;17.80;102989.00;;;;6210043;23;20048;-64
2022/04/16 12:05:42;;;;;;;1.77;0.32;;;19.00;40.50;17.80;102987.00;;;;6207390;23;20052;-64
2022/04/16 12:08:31;;;;;;;0.73;0.47;;;18.90;41.00;17.70;102980.00;;;;6208128;23;20016;-64
2022/04/16 12:11:20;;;;;;;0.35;0.32;;;19.00;40.20;17.80;102986.00;;;;6207214;23;20036;-64
2022/04/16 12:14:06;;;;;;;1.05;0.40;;;18.90;40.20;17.80;102981.00;;;;6207788;23;20020;-64
2022/04/16 12:16:59;;;;;;;0.50;0.50;;;19.00;40.30;17.70;102976.00;;;;6166751;23;20458;-64
2022/04/16 12:19:45;;;;;;;2.55;0.68;;;19.00;39.10;17.70;102974.00;;;;6208566;23;20017;-64
2022/04/16 12:22:48;;;;;;;0.40;0.40;;;19.00;38.90;17.70;102970.00;;;;6211503;23;20028;-64
2022/04/16 12:25:34;;;;;;;2.35;0.60;;;19.00;39.10;17.70;102975.00;;;;6208817;23;20071;-64
2022/04/16 12:28:20;;;;;;;0.57;0.38;;;19.00;39.10;17.70;102964.00;;;;6210725;23;20114;-64
2022/04/16 12:31:06;;;;;;;1.17;0.38;;;18.90;39.50;17.70;102971.00;;;;6209707;23;20020;-64
2022/04/16 12:33:52;;;;;;;1.20;0.40;;;19.00;39.50;17.70;102975.00;;;;6206561;23;20470;-64
2022/04/16 12:36:39;;;;;;;3.15;0.45;;;19.00;39.60;17.80;102967.00;;;;6207797;23;20021;-64
2022/04/16 12:39:25;;;;;;;1.25;0.40;;;19.00;39.40;17.80;102968.00;;;;6209883;23;20023;-64